Time;durP1;ratioP1;P1;durP2;ratioP2;P2;SDS_P1;SDS_P2;PMS_P1;PMS_P2;Temp;Humidity;BMP_temperature;BMP_pressure;BME280_temperature;BME280_humidity;BME280_pressure;Samples;Min_cycle;Max_cycle;Signal;HPM_P1;HPM_P2
2022/11/23 00:00:03;;;;;;;;;;;;;;;21.28;44.69;99093.19;7256517;19;154583;-58
2022/11/23 00:02:30;;;;;;;;;;;;;;;21.26;44.43;99100.34;7256530;19;152810;-59
2022/11/23 00:04:56;;;;;;;;;;;;;;;21.26;44.63;99094.72;7257123;19;153057;-59
2022/11/23 00:07:23;;;;;;;;;;;;;;;21.24;44.32;99097.09;7247906;19;156087;-59
2022/11/23 00:09:50;;;;;;;;;;;;;;;21.23;44.58;99101.06;7255529;19;153402;-59
2022/11/23 00:12:16;;;;;;;;;;;;;;;21.22;44.44;99089.00;7258345;19;153318;-59
2022/11/23 00:14:43;;;;;;;;;;;;;;;21.21;44.65;99098.59;7253051;19;153247;-58
2022/11/23 00:17:14;;;;;;;;;;;;;;;21.18;44.74;99085.28;7254317;19;153894;-58
2022/11/23 00:19:41;;;;;;;;;;;;;;;21.18;44.59;99087.28;7255767;19;155563;-58
2022/11/23 00:22:07;;;;;;;;;;;;;;;21.17;44.78;99080.03;7252638;19;154246;-58
2022/11/23 00:24:34;;;;;;;;;;;;;;;21.15;44.47;99079.56;7254910;19;154733;-58
2022/11/23 00:27:01;;;;;;;;;;;;;;;21.12;44.88;99080.28;7251772;19;153427;-59
2022/11/23 00:29:28;;;;;;;;;;;;;;;21.09;44.92;99078.97;7257523;19;154745;-59
2022/11/23 00:31:55;;;;;;;;;;;;;;;21.07;44.95;99072.09;7253795;19;153080;-59
2022/11/23 00:34:21;;;;;;;;;;;;;;;21.07;45.10;99069.28;7261579;19;154068;-58
2022/11/23 00:36:49;;;;;;;;;;;;;;;21.02;44.73;99066.72;7253034;19;154765;-59
2022/11/23 00:39:16;;;;;;;;;;;;;;;20.99;45.24;99070.25;7251587;19;155098;-58
2022/11/23 00:41:43;;;;;;;;;;;;;;;20.92;45.15;99059.63;7252834;19;153512;-58
2022/11/23 00:44:09;;;;;;;;;;;;;;;20.88;45.50;99067.16;7254435;19;154174;-58
2022/11/23 00:46:36;;;;;;;;;;;;;;;20.82;45.65;99060.97;7252953;19;153565;-58
2022/11/23 00:49:03;;;;;;;;;;;;;;;20.79;45.40;99070.09;7254399;19;154428;-58
2022/11/23 00:51:31;;;;;;;;;;;;;;;20.78;45.71;99062.03;7250284;19;152456;-58
2022/11/23 00:53:58;;;;;;;;;;;;;;;20.73;45.95;99057.47;7250796;19;154483;-59
2022/11/23 00:56:25;;;;;;;;;;;;;;;20.72;45.45;99060.63;7261144;19;153958;-58
2022/11/23 00:58:53;;;;;;;;;;;;;;;20.67;45.69;99053.28;7253244;19;153868;-59
2022/11/23 01:01:21;;;;;;;;;;;;;;;20.64;46.04;99054.00;7253945;19;153297;-57
2022/11/23 01:03:52;;;;;;;;;;;;;;;20.62;46.00;99056.38;7254536;19;153894;-58
2022/11/23 01:06:20;;;;;;;;;;;;;;;20.62;45.90;99052.72;7252765;19;153834;-58
2022/11/23 01:08:51;;;;;;;;;;;;;;;20.59;45.98;99051.44;7251228;19;152125;-58
2022/11/23 01:11:18;;;;;;;;;;;;;;;20.57;45.68;99044.56;7251912;19;155467;-58
2022/11/23 01:13:45;;;;;;;;;;;;;;;20.52;45.74;99051.25;7251164;19;154417;-58
2022/11/23 01:16:13;;;;;;;;;;;;;;;20.51;46.13;99048.78;7254982;19;153815;-58
2022/11/23 01:18:50;;;;;;;;;;;;;;;20.51;45.77;99048.78;7259806;19;153502;-58
2022/11/23 01:21:17;;;;;;;;;;;;;;;20.49;46.10;99049.13;7262191;19;153702;-58
2022/11/23 01:23:43;;;;;;;;;;;;;;;20.46;46.19;99047.03;7259714;19;153676;-58
2022/11/23 01:26:10;;;;;;;;;;;;;;;20.43;46.25;99053.38;7261692;19;154069;-59
2022/11/23 01:28:38;;;;;;;;;;;;;;;20.40;45.97;99045.63;7260348;19;153780;-58
2022/11/23 01:31:06;;;;;;;;;;;;;;;20.40;45.97;99045.63;7261548;19;153843;-58
2022/11/23 01:33:33;;;;;;;;;;;;;;;20.36;45.97;99039.91;7256643;19;153601;-59
2022/11/23 01:35:59;;;;;;;;;;;;;;;20.35;45.95;99032.66;7260177;19;153339;-59
2022/11/23 01:38:26;;;;;;;;;;;;;;;20.32;46.30;99029.75;7256496;19;154735;-58
2022/11/23 01:40:53;;;;;;;;;;;;;;;20.29;46.25;99022.03;7264461;19;154394;-59
2022/11/23 01:43:19;;;;;;;;;;;;;;;20.30;46.40;99026.50;7260017;19;153569;-59
2022/11/23 01:45:52;;;;;;;;;;;;;;;20.25;46.36;99021.94;7259761;19;154069;-59
2022/11/23 01:48:21;;;;;;;;;;;;;;;20.24;46.45;99019.47;7257962;19;155034;-59
2022/11/23 01:50:50;;;;;;;;;;;;;;;20.21;46.55;99020.19;7261026;19;153508;-58
2022/11/23 01:53:18;;;;;;;;;;;;;;;20.21;46.29;99008.97;7253216;19;154763;-58
2022/11/23 01:55:46;;;;;;;;;;;;;;;20.17;46.56;99005.25;7259138;19;154438;-58
2022/11/23 01:58:14;;;;;;;;;;;;;;;20.16;46.56;99003.59;7258065;19;154439;-58
2022/11/23 02:00:41;;;;;;;;;;;;;;;20.16;46.33;99004.41;7265439;19;154261;-59
2022/11/23 02:03:08;;;;;;;;;;;;;;;20.14;46.55;98998.34;7258445;19;153262;-59
2022/11/23 02:05:41;;;;;;;;;;;;;;;20.16;46.80;99006.41;7261376;19;155090;-59
2022/11/23 02:08:07;;;;;;;;;;;;;;;20.14;46.48;98998.34;7260691;19;153972;-59
2022/11/23 02:10:35;;;;;;;;;;;;;;;20.14;46.45;98994.72;7260029;19;153883;-58
2022/11/23 02:13:06;;;;;;;;;;;;;;;20.11;46.57;98987.03;7252702;19;153895;-59
2022/11/23 02:15:33;;;;;;;;;;;;;;;20.08;46.85;98979.31;7259559;19;153087;-59
2022/11/23 02:18:01;;;;;;;;;;;;;;;20.08;46.54;98960.50;7258115;19;154547;-58
2022/11/23 02:20:28;;;;;;;;;;;;;;;20.06;46.94;98967.63;7258246;19;157084;-58
2022/11/23 02:22:55;;;;;;;;;;;;;;;20.06;46.61;98962.03;7261612;19;153436;-59
2022/11/23 02:25:35;;;;;;;;;;;;;;;20.02;46.94;98956.31;7257818;19;154083;-59
2022/11/23 02:28:02;;;;;;;;;;;;;;;20.01;47.11;98954.69;7254210;19;153816;-59
2022/11/23 02:30:29;;;;;;;;;;;;;;;20.01;46.84;98959.47;7258954;19;153023;-59
2022/11/23 02:32:56;;;;;;;;;;;;;;;19.98;47.21;98949.78;7253420;19;155265;-59
2022/11/23 02:35:22;;;;;;;;;;;;;;;19.97;47.14;98942.53;7256810;19;155050;-59
2022/11/23 02:37:51;;;;;;;;;;;;;;;19.95;47.18;98937.28;7253926;19;152907;-59
2022/11/23 02:40:32;;;;;;;;;;;;;;;19.94;46.93;98927.22;7257015;19;154094;-59
2022/11/23 02:42:59;;;;;;;;;;;;;;;19.91;47.10;98922.34;7256900;19;154035;-59
2022/11/23 02:45:44;;;;;;;;;;;;;;;19.91;47.41;98921.53;7265488;19;153813;-59
2022/11/23 02:48:10;;;;;;;;;;;;;;;19.87;47.32;98915.81;7256297;19;153940;-59
2022/11/23 02:50:37;;;;;;;;;;;;;;;19.88;47.44;98916.63;7258770;19;154432;-59
2022/11/23 02:53:04;;;;;;;;;;;;;;;19.84;47.27;98919.34;7252229;19;153904;-59
2022/11/23 02:55:30;;;;;;;;;;;;;;;19.85;47.76;98920.94;7257520;19;152246;-59
2022/11/23 02:57:57;;;;;;;;;;;;;;;19.84;47.79;98918.53;7256305;19;153623;-59
2022/11/23 03:00:24;;;;;;;;;;;;;;;19.82;47.42;98923.66;7257092;19;154949;-59
2022/11/23 03:02:51;;;;;;;;;;;;;;;19.79;47.63;98922.38;7257729;19;152559;-59
2022/11/23 03:05:17;;;;;;;;;;;;;;;19.77;47.58;98918.28;7257057;19;153550;-58
2022/11/23 03:07:44;;;;;;;;;;;;;;;19.75;47.61;98915.84;7260347;19;154301;-60
2022/11/23 03:10:11;;;;;;;;;;;;;;;19.74;48.02;98903.00;7256021;19;153362;-59
2022/11/23 03:12:38;;;;;;;;;;;;;;;19.73;47.69;98901.38;7255720;19;153546;-59
2022/11/23 03:15:04;;;;;;;;;;;;;;;19.69;48.18;98897.63;7255256;19;152025;-59
2022/11/23 03:17:31;;;;;;;;;;;;;;;19.68;48.17;98889.56;7250281;19;154259;-59
2022/11/23 03:19:58;;;;;;;;;;;;;;;19.65;48.31;98888.31;7255417;19;153987;-59
2022/11/23 03:22:24;;;;;;;;;;;;;;;19.62;48.33;98885.41;7256261;19;155716;-59
2022/11/23 03:24:51;;;;;;;;;;;;;;;19.61;48.56;98881.78;7254224;19;154697;-59
2022/11/23 03:27:18;;;;;;;;;;;;;;;19.60;48.40;98873.72;7254545;19;153903;-59
2022/11/23 03:29:45;;;;;;;;;;;;;;;19.59;48.70;98872.91;7264256;19;153856;-59
2022/11/23 03:32:11;;;;;;;;;;;;;;;19.58;48.57;98873.28;7254514;19;153336;-59
2022/11/23 03:34:38;;;;;;;;;;;;;;;19.53;48.64;98869.53;7254999;19;153374;-59
2022/11/23 03:37:04;;;;;;;;;;;;;;;19.51;48.95;98863.47;7254883;19;153483;-59
2022/11/23 03:39:31;;;;;;;;;;;;;;;19.50;49.09;98866.63;7250390;19;154772;-59
2022/11/23 03:41:58;;;;;;;;;;;;;;;19.47;48.97;98861.72;7253913;19;154087;-59
2022/11/23 03:44:25;;;;;;;;;;;;;;;19.46;49.08;98855.31;7255909;19;153471;-60
2022/11/23 03:46:52;;;;;;;;;;;;;;;19.43;49.37;98853.22;7255116;19;154695;-59
2022/11/23 03:49:18;;;;;;;;;;;;;;;19.45;49.39;98852.84;7255712;19;154123;-59
2022/11/23 03:51:45;;;;;;;;;;;;;;;19.44;49.22;98859.63;7259328;19;153681;-60
2022/11/23 03:54:12;;;;;;;;;;;;;;;19.43;49.36;98844.81;7252596;19;152950;-59
2022/11/23 03:56:38;;;;;;;;;;;;;;;19.39;49.75;98843.03;7254834;19;153598;-59
2022/11/23 03:59:05;;;;;;;;;;;;;;;19.39;49.52;98829.84;7254483;19;153826;-59
2022/11/23 04:01:32;;;;;;;;;;;;;;;19.38;49.46;98830.19;7254635;19;152936;-59
2022/11/23 04:03:58;;;;;;;;;;;;;;;19.35;49.76;98833.72;7254952;19;154854;-59
2022/11/23 04:06:25;;;;;;;;;;;;;;;19.35;49.67;98836.50;7253615;19;154721;-59
2022/11/23 04:08:52;;;;;;;;;;;;;;;19.32;49.67;98824.03;7254628;19;153417;-59
2022/11/23 04:11:25;;;;;;;;;;;;;;;19.32;49.85;98826.81;7259469;19;155997;-59
2022/11/23 04:13:52;;;;;;;;;;;;;;;19.33;49.77;98833.25;7253488;19;153579;-59
2022/11/23 04:16:18;;;;;;;;;;;;;;;19.32;49.73;98831.59;7254648;19;154087;-59
2022/11/23 04:18:45;;;;;;;;;;;;;;;19.30;50.00;98828.34;7254567;19;154556;-59
2022/11/23 04:21:12;;;;;;;;;;;;;;;19.28;49.91;98823.09;7255666;19;154961;-59
2022/11/23 04:23:38;;;;;;;;;;;;;;;19.29;50.04;98816.34;7252571;19;152801;-59
2022/11/23 04:26:10;;;;;;;;;;;;;;;19.23;50.17;98817.72;7256619;19;154775;-59
2022/11/23 04:28:36;;;;;;;;;;;;;;;19.24;50.60;98821.34;7254433;19;154043;-59
2022/11/23 04:31:03;;;;;;;;;;;;;;;19.23;50.64;98816.91;7256068;19;154667;-59
2022/11/23 04:33:30;;;;;;;;;;;;;;;19.20;50.65;98812.84;7259059;19;154134;-59
2022/11/23 04:35:57;;;;;;;;;;;;;;;19.19;50.26;98811.22;7257098;19;153931;-59
2022/11/23 04:38:24;;;;;;;;;;;;;;;19.20;50.60;98807.25;7253219;19;154028;-59
2022/11/23 04:40:50;;;;;;;;;;;;;;;19.18;50.77;98805.94;7256227;19;154378;-59
2022/11/23 04:43:17;;;;;;;;;;;;;;;19.19;50.71;98800.00;7253366;19;153347;-58
2022/11/23 04:45:44;;;;;;;;;;;;;;;19.20;50.52;98800.81;7254266;19;155031;-59
2022/11/23 04:48:10;;;;;;;;;;;;;;;19.19;50.32;98796.38;7254210;19;152535;-59
2022/11/23 04:50:37;;;;;;;;;;;;;;;19.19;50.61;98788.00;7255634;19;153638;-59
2022/11/23 04:53:06;;;;;;;;;;;;;;;19.16;50.69;98781.13;7249560;19;154963;-59
2022/11/23 04:55:32;;;;;;;;;;;;;;;19.15;50.34;98775.88;7266715;19;153337;-58
2022/11/23 04:57:59;;;;;;;;;;;;;;;19.14;50.55;98779.84;7259490;19;154426;-59
2022/11/23 05:00:26;;;;;;;;;;;;;;;19.10;50.28;98772.16;7260653;19;153364;-59
2022/11/23 05:02:53;;;;;;;;;;;;;;;19.09;50.65;98761.28;7259700;19;154250;-59
2022/11/23 05:05:20;;;;;;;;;;;;;;;19.07;50.63;98758.06;7260564;19;156161;-58
2022/11/23 05:07:46;;;;;;;;;;;;;;;19.06;50.75;98756.41;7255867;19;152445;-58
2022/11/23 05:10:13;;;;;;;;;;;;;;;19.02;50.55;98759.09;7260451;19;153117;-58
2022/11/23 05:12:40;;;;;;;;;;;;;;;19.02;50.76;98764.69;7257332;19;153178;-59
2022/11/23 05:15:07;;;;;;;;;;;;;;;19.02;50.56;98763.88;7258650;19;153859;-59
2022/11/23 05:17:33;;;;;;;;;;;;;;;19.02;50.85;98770.28;7263491;19;154396;-59
2022/11/23 05:20:00;;;;;;;;;;;;;;;19.01;50.58;98768.66;7262529;19;155298;-58
2022/11/23 05:22:27;;;;;;;;;;;;;;;19.00;50.67;98766.19;7258391;19;153560;-59
2022/11/23 05:24:53;;;;;;;;;;;;;;;18.99;50.43;98758.97;7258785;19;154722;-58
2022/11/23 05:27:20;;;;;;;;;;;;;;;18.97;50.50;98748.16;7258707;19;152090;-58
2022/11/23 05:29:47;;;;;;;;;;;;;;;18.96;50.55;98749.31;7258030;19;154329;-58
2022/11/23 05:32:13;;;;;;;;;;;;;;;18.99;50.87;98739.38;7259206;19;154610;-59
2022/11/23 05:34:40;;;;;;;;;;;;;;;19.10;51.30;98732.13;7256768;19;153604;-59
2022/11/23 05:37:07;;;;;;;;;;;;;;;19.16;51.32;98736.34;7259214;19;154183;-58
2022/11/23 05:39:33;;;;;;;;;;;;;;;19.19;51.27;98737.59;7263745;19;154153;-58
2022/11/23 05:42:00;;;;;;;;;;;;;;;19.23;51.86;98732.94;7258757;19;152388;-59
2022/11/23 05:44:27;;;;;;;;;;;;;;;19.27;51.46;98734.66;7258445;19;153513;-59
2022/11/23 05:46:53;;;;;;;;;;;;;;;19.32;51.31;98728.00;7259233;19;153014;-59
2022/11/23 05:49:20;;;;;;;;;;;;;;;19.35;51.87;98732.91;7259422;19;153997;-59
2022/11/23 05:51:47;;;;;;;;;;;;;;;19.38;51.76;98723.78;7255876;19;153658;-59
2022/11/23 05:54:13;;;;;;;;;;;;;;;19.42;51.83;98724.72;7257360;19;153340;-58
2022/11/23 05:56:40;;;;;;;;;;;;;;;19.45;51.52;98715.63;7260131;19;153654;-59
2022/11/23 05:59:06;;;;;;;;;;;;;;;19.48;51.49;98710.16;7258020;19;153447;-59
2022/11/23 06:01:33;;;;;;;;;;;;;;;19.52;51.66;98697.06;7266709;19;153415;-59
2022/11/23 06:04:01;;;;;;;;;;;;;;;19.57;51.83;98689.56;7257973;19;155865;-58
2022/11/23 06:06:27;;;;;;;;;;;;;;;19.62;51.72;98686.50;7257535;19;153274;-58
2022/11/23 06:08:54;;;;;;;;;;;;;;;19.66;51.45;98685.44;7257944;19;154388;-59
2022/11/23 06:11:21;;;;;;;;;;;;;;;19.71;51.32;98676.78;7256060;19;156250;-58
2022/11/23 06:13:48;;;;;;;;;;;;;;;19.77;51.29;98674.50;7259062;19;153296;-58
2022/11/23 06:16:17;;;;;;;;;;;;;;;19.82;51.87;98683.47;7257460;19;154834;-58
2022/11/23 06:18:43;;;;;;;;;;;;;;;19.87;51.22;98677.59;7259087;19;154301;-58
2022/11/23 06:21:10;;;;;;;;;;;;;;;19.92;51.19;98663.34;7266100;19;153857;-59
2022/11/23 06:23:37;;;;;;;;;;;;;;;19.97;51.14;98656.66;7256797;19;154532;-60
2022/11/23 06:26:11;;;;;;;;;;;;;;;20.03;51.33;98646.81;7256835;19;152075;-59
2022/11/23 06:28:38;;;;;;;;;;;;;;;20.07;51.19;98633.69;7259766;19;154029;-59
2022/11/23 06:31:05;;;;;;;;;;;;;;;20.14;50.96;98633.03;7256913;19;154389;-60
2022/11/23 06:33:32;;;;;;;;;;;;;;;20.18;51.16;98619.94;7258097;19;153049;-59
2022/11/23 06:36:00;;;;;;;;;;;;;;;20.23;50.75;98619.66;7258335;19;153932;-59
2022/11/23 06:38:27;;;;;;;;;;;;;;;20.29;50.54;98607.00;7254005;19;154351;-59
2022/11/23 06:41:00;;;;;;;;;;;;;;;20.34;50.79;98601.16;7259064;19;154583;-59
2022/11/23 06:43:27;;;;;;;;;;;;;;;20.38;50.59;98597.25;7264316;19;154493;-59
2022/11/23 06:45:54;;;;;;;;;;;;;;;20.42;50.55;98589.72;7258490;19;154111;-60
2022/11/23 06:48:21;;;;;;;;;;;;;;;20.48;50.23;98584.66;7257814;19;154677;-59
2022/11/23 06:50:48;;;;;;;;;;;;;;;20.53;50.38;98583.56;7256752;19;153423;-59
2022/11/23 06:53:14;;;;;;;;;;;;;;;20.57;50.37;98574.03;7256723;19;153615;-59
2022/11/23 06:55:41;;;;;;;;;;;;;;;20.63;49.85;98563.31;7254905;19;152419;-59
2022/11/23 06:58:08;;;;;;;;;;;;;;;20.68;50.12;98557.41;7256583;19;153969;-59
2022/11/23 07:00:35;;;;;;;;;;;;;;;20.72;49.66;98552.69;7259270;19;153872;-59
2022/11/23 07:03:02;;;;;;;;;;;;;;;20.75;49.50;98535.97;7254890;19;153257;-59
2022/11/23 07:05:31;;;;;;;;;;;;;;;20.80;49.53;98543.28;7261961;19;155783;-59
2022/11/23 07:07:57;;;;;;;;;;;;;;;20.86;49.71;98527.75;7253696;19;153974;-59
2022/11/23 07:10:24;;;;;;;;;;;;;;;20.89;49.60;98532.63;7253987;19;154227;-59
2022/11/23 07:12:51;;;;;;;;;;;;;;;20.94;49.39;98535.13;7257062;19;153444;-59
2022/11/23 07:15:18;;;;;;;;;;;;;;;20.99;49.46;98539.63;7256843;19;152420;-59
2022/11/23 07:17:45;;;;;;;;;;;;;;;21.04;49.18;98534.53;7253970;19;154350;-59
2022/11/23 07:20:12;;;;;;;;;;;;;;;21.08;48.71;98531.78;7258881;19;153885;-59
2022/11/23 07:22:39;;;;;;;;;;;;;;;21.14;49.22;98538.78;7256372;19;152906;-60
2022/11/23 07:25:05;;;;;;;;;;;;;;;21.18;48.78;98536.84;7250042;19;154816;-59
2022/11/23 07:27:32;;;;;;;;;;;;;;;21.20;48.57;98528.88;7263896;19;153929;-59
2022/11/23 07:29:59;;;;;;;;;;;;;;;21.23;48.25;98522.50;7255312;19;156845;-59
2022/11/23 07:32:25;;;;;;;;;;;;;;;21.26;48.13;98511.31;7256821;19;153462;-60
2022/11/23 07:34:52;;;;;;;;;;;;;;;21.28;48.19;98514.59;7255198;19;154242;-59
2022/11/23 07:37:19;;;;;;;;;;;;;;;21.31;47.93;98515.81;7248532;19;153359;-59
2022/11/23 07:39:45;;;;;;;;;;;;;;;21.32;46.37;98519.44;7254498;19;154092;-58
2022/11/23 07:42:23;;;;;;;;;;;;;;;21.17;44.48;98512.75;7256262;19;155373;-59
2022/11/23 07:45:05;;;;;;;;;;;;;;;21.14;45.83;98502.25;7256718;19;154196;-59
2022/11/23 07:47:32;;;;;;;;;;;;;;;21.18;46.01;98503.16;7254250;19;153857;-59
2022/11/23 07:49:58;;;;;;;;;;;;;;;21.20;45.99;98501.59;7263128;19;153853;-59
2022/11/23 07:52:25;;;;;;;;;;;;;;;21.22;45.99;98493.59;7254047;19;153249;-59
2022/11/23 07:54:52;;;;;;;;;;;;;;;21.24;46.01;98496.03;7253224;19;152887;-59
2022/11/23 07:57:18;;;;;;;;;;;;;;;21.27;46.10;98478.44;7251653;19;154561;-59
2022/11/23 07:59:45;;;;;;;;;;;;;;;21.29;45.92;98456.41;7257603;19;153437;-59
2022/11/23 08:02:13;;;;;;;;;;;;;;;21.30;45.86;98453.22;7254734;19;153026;-59
2022/11/23 08:04:40;;;;;;;;;;;;;;;21.33;46.01;98448.06;7258721;19;154411;-59
2022/11/23 08:07:07;;;;;;;;;;;;;;;21.35;45.93;98445.69;7254285;19;154073;-59
2022/11/23 08:09:34;;;;;;;;;;;;;;;21.37;45.65;98449.75;7257650;19;154648;-59
2022/11/23 08:12:00;;;;;;;;;;;;;;;21.40;46.13;98439.72;7264257;19;152864;-59
2022/11/23 08:14:27;;;;;;;;;;;;;;;21.41;45.83;98435.75;7258648;19;153383;-59
2022/11/23 08:16:54;;;;;;;;;;;;;;;21.42;46.10;98434.56;7254838;19;154467;-59
2022/11/23 08:19:20;;;;;;;;;;;;;;;21.40;45.80;98431.31;7257094;19;153079;-59
2022/11/23 08:21:47;;;;;;;;;;;;;;;21.40;46.34;98428.50;7256539;19;154094;-62
2022/11/23 08:24:14;;;;;;;;;;;;;;;21.41;46.26;98428.13;7256721;19;152992;-60
2022/11/23 08:26:41;;;;;;;;;;;;;;;21.38;46.33;98417.66;7255620;19;153334;-59
2022/11/23 08:29:07;;;;;;;;;;;;;;;21.39;46.71;98407.22;7256966;19;154276;-61
2022/11/23 08:31:34;;;;;;;;;;;;;;;21.37;46.65;98399.19;7264732;19;153728;-60
2022/11/23 08:34:01;;;;;;;;;;;;;;;21.35;46.73;98404.34;7258125;19;153464;-59
2022/11/23 08:36:29;;;;;;;;;;;;;;;21.33;46.69;98394.69;7254708;19;153839;-59
2022/11/23 08:38:55;;;;;;;;;;;;;;;21.32;46.87;98395.88;7258161;19;153913;-59
2022/11/23 08:41:22;;;;;;;;;;;;;;;21.31;46.60;98383.81;7260783;19;154805;-60
2022/11/23 08:43:49;;;;;;;;;;;;;;;21.30;46.52;98379.41;7253534;19;153358;-59
2022/11/23 08:46:16;;;;;;;;;;;;;;;21.29;46.33;98372.16;7251276;19;153272;-59
2022/11/23 08:48:43;;;;;;;;;;;;;;;21.29;46.67;98366.53;7255630;19;154000;-59
2022/11/23 08:51:09;;;;;;;;;;;;;;;21.25;46.58;98360.06;7252627;19;153480;-59
2022/11/23 08:53:36;;;;;;;;;;;;;;;21.21;46.72;98351.56;7254562;19;153753;-59
2022/11/23 08:56:04;;;;;;;;;;;;;;;21.21;46.67;98348.75;7251720;19;155150;-58
2022/11/23 08:58:31;;;;;;;;;;;;;;;21.21;46.60;98350.78;7252492;19;153121;-58
2022/11/23 09:00:58;;;;;;;;;;;;;;;21.22;46.42;98355.19;7254200;19;154728;-59
2022/11/23 09:03:25;;;;;;;;;;;;;;;21.23;46.48;98348.38;7250973;19;153982;-59
2022/11/23 09:05:53;;;;;;;;;;;;;;;21.24;46.43;98344.41;7250847;19;154433;-58
2022/11/23 09:08:20;;;;;;;;;;;;;;;21.24;46.59;98338.78;7247912;19;154589;-59
2022/11/23 09:10:46;;;;;;;;;;;;;;;21.25;46.60;98337.59;7251526;19;153439;-59
2022/11/23 09:13:13;;;;;;;;;;;;;;;21.27;47.04;98343.63;7252403;19;153691;-59
2022/11/23 09:15:39;;;;;;;;;;;;;;;21.29;46.63;98324.41;7259396;19;153366;-59
2022/11/23 09:18:06;;;;;;;;;;;;;;;21.31;46.91;98350.13;7252114;19;153689;-59
2022/11/23 09:20:33;;;;;;;;;;;;;;;21.35;47.04;98393.09;7252931;19;155371;-59
2022/11/23 09:23:00;;;;;;;;;;;;;;;21.39;47.08;98398.81;7248396;19;156635;-59
2022/11/23 09:25:26;;;;;;;;;;;;;;;21.41;46.93;98388.00;7249405;19;153362;-59
2022/11/23 09:27:57;;;;;;;;;;;;;;;21.42;46.79;98412.91;7250700;19;154376;-59
2022/11/23 09:30:25;;;;;;;;;;;;;;;21.45;46.47;98426.19;7252459;19;156548;-59
2022/11/23 09:32:51;;;;;;;;;;;;;;;21.47;46.38;98439.88;7251194;19;152804;-59
2022/11/23 09:35:18;;;;;;;;;;;;;;;21.47;46.71;98443.50;7253009;19;153415;-59
2022/11/23 09:37:44;;;;;;;;;;;;;;;21.46;46.76;98450.28;7256661;19;153668;-59
2022/11/23 09:40:16;;;;;;;;;;;;;;;21.47;46.26;98456.72;7252300;19;153573;-59
2022/11/23 09:43:02;;;;;;;;;;;;;;;21.49;46.35;98462.75;7257290;19;154208;-59
2022/11/23 09:45:33;;;;;;;;;;;;;;;21.49;46.46;98474.81;7259897;19;152936;-59
2022/11/23 09:48:19;;;;;;;;;;;;;;;21.50;45.96;98498.09;7258742;19;153331;-59
2022/11/23 09:50:47;;;;;;;;;;;;;;;21.48;46.34;98506.13;7257334;19;154578;-59
2022/11/23 09:53:20;;;;;;;;;;;;;;;21.48;45.92;98501.31;7254663;19;153239;-59
2022/11/23 09:55:48;;;;;;;;;;;;;;;21.47;45.91;98505.31;7257936;19;152963;-59
2022/11/23 09:58:16;;;;;;;;;;;;;;;21.46;46.21;98500.88;7257251;19;155392;-59
2022/11/23 10:00:46;;;;;;;;;;;;;;;21.44;45.92;98499.63;7276342;19;153439;-59
2022/11/23 10:03:14;;;;;;;;;;;;;;;21.43;46.00;98509.22;7258314;19;154055;-59
2022/11/23 10:05:43;;;;;;;;;;;;;;;21.42;45.84;98522.47;7259531;19;153235;-59
2022/11/23 10:08:10;;;;;;;;;;;;;;;21.41;46.01;98529.25;7254342;19;153449;-59
2022/11/23 10:10:43;;;;;;;;;;;;;;;21.39;45.76;98536.44;7257468;19;154954;-59
2022/11/23 10:13:21;;;;;;;;;;;;;;;21.37;45.53;98550.03;7258461;19;155486;-59
2022/11/23 10:16:10;;;;;;;;;;;;;;;21.35;46.02;98549.63;7257725;19;154327;-59
2022/11/23 10:18:56;;;;;;;;;;;;;;;21.34;45.54;98557.22;7256179;19;154329;-59
2022/11/23 10:21:29;;;;;;;;;;;;;;;21.32;45.39;98553.16;7263555;19;155684;-59
2022/11/23 10:24:18;;;;;;;;;;;;;;;21.30;45.62;98556.34;7255015;19;153961;-59
2022/11/23 10:26:46;;;;;;;;;;;;;;;21.28;45.43;98558.72;7257762;19;153155;-59
2022/11/23 10:29:25;;;;;;;;;;;;;;;21.24;45.54;98571.88;7259237;19;154758;-59
2022/11/23 10:31:52;;;;;;;;;;;;;;;21.22;45.17;98577.03;7255789;19;153758;-59
2022/11/23 10:34:22;;;;;;;;;;;;;;;21.22;45.25;98580.66;7259566;19;154152;-60
2022/11/23 10:36:49;;;;;;;;;;;;;;;21.19;45.48;98587.03;7254646;19;154121;-59
2022/11/23 10:39:20;;;;;;;;;;;;;;;21.20;45.12;98599.91;7254620;19;155237;-59
2022/11/23 10:41:46;;;;;;;;;;;;;;;21.17;45.06;98606.22;7256739;19;153203;-58
2022/11/23 10:44:30;;;;;;;;;;;;;;;21.16;45.28;98612.22;7264971;19;154317;-58
2022/11/23 10:46:58;;;;;;;;;;;;;;;21.17;45.30;98625.88;7256790;19;152801;-59
2022/11/23 10:49:29;;;;;;;;;;;;;;;21.16;45.39;98629.09;7257222;19;154826;-59
2022/11/23 10:51:59;;;;;;;;;;;;;;;21.13;45.09;98641.84;7257207;19;153484;-59
2022/11/23 10:54:28;;;;;;;;;;;;;;;21.14;44.79;98642.66;7255909;19;153539;-59
2022/11/23 10:56:56;;;;;;;;;;;;;;;21.11;45.23;98646.19;7255120;19;154341;-58
2022/11/23 10:59:30;;;;;;;;;;;;;;;21.12;44.86;98667.47;7256946;19;155208;-59
2022/11/23 11:02:15;;;;;;;;;;;;;;;21.07;44.83;98670.56;7254385;19;153817;-59
2022/11/23 11:04:42;;;;;;;;;;;;;;;21.08;44.54;98675.81;7256636;19;153486;-58
2022/11/23 11:07:15;;;;;;;;;;;;;;;21.06;44.52;98685.78;7259342;19;155918;-59
2022/11/23 11:09:46;;;;;;;;;;;;;;;21.07;44.53;98687.41;7255231;19;153350;-59
2022/11/23 11:12:17;;;;;;;;;;;;;;;21.03;44.92;98700.56;7256288;19;153347;-58
2022/11/23 11:15:01;;;;;;;;;;;;;;;21.06;44.56;98691.41;7252983;19;153407;-59
2022/11/23 11:17:38;;;;;;;;;;;;;;;21.03;44.71;98711.78;7254570;19;153569;-59
2022/11/23 11:20:28;;;;;;;;;;;;;;;21.01;44.35;98703.72;7256126;19;152524;-59
2022/11/23 11:22:55;;;;;;;;;;;;;;;20.96;44.40;98720.84;7254838;19;154979;-58
2022/11/23 11:25:28;;;;;;;;;;;;;;;20.89;44.58;98717.91;7257767;19;153645;-59
2022/11/23 11:27:55;;;;;;;;;;;;;;;20.86;44.74;98713.81;7254487;19;155846;-58
2022/11/23 11:30:23;;;;;;;;;;;;;;;20.84;44.67;98719.00;7264492;19;152738;-58
2022/11/23 11:33:08;;;;;;;;;;;;;;;20.83;44.73;98737.00;7255936;19;152842;-59
2022/11/23 11:35:37;;;;;;;;;;;;;;;20.85;44.33;98731.00;7255916;19;153281;-59
2022/11/23 11:38:12;;;;;;;;;;;;;;;20.85;44.66;98731.00;7254073;19;154420;-59
2022/11/23 11:40:47;;;;;;;;;;;;;;;20.82;44.62;98740.16;7254536;19;156092;-58
2022/11/23 11:43:19;;;;;;;;;;;;;;;20.79;44.64;98749.31;7256016;19;154128;-59
2022/11/23 11:45:54;;;;;;;;;;;;;;;20.76;44.49;98748.03;7257032;19;154010;-59
2022/11/23 11:49:05;;;;;;;;;;;;;;;20.75;44.59;98754.84;7254234;19;153740;-59
2022/11/23 11:51:34;;;;;;;;;;;;;;;20.74;44.80;98750.41;7253148;19;153778;-58
2022/11/23 11:54:01;;;;;;;;;;;;;;;20.73;44.39;98756.38;7261335;19;154615;-58
2022/11/23 11:56:38;;;;;;;;;;;;;;;20.69;44.50;98766.69;7252400;19;152522;-58
2022/11/23 11:59:08;;;;;;;;;;;;;;;20.66;44.75;98756.22;7255649;19;154109;-58
2022/11/23 12:01:37;;;;;;;;;;;;;;;20.62;44.75;98761.75;7254756;19;154364;-59
2022/11/23 12:04:06;;;;;;;;;;;;;;;20.62;44.68;98760.91;7254380;19;152922;-59
2022/11/23 12:06:38;;;;;;;;;;;;;;;20.62;45.02;98772.97;7253433;19;153939;-59
2022/11/23 12:09:13;;;;;;;;;;;;;;;20.59;44.63;98784.88;7252981;19;155371;-59
2022/11/23 12:11:40;;;;;;;;;;;;;;;20.59;44.75;98786.88;7254925;19;151951;-59
2022/11/23 12:14:14;;;;;;;;;;;;;;;20.58;44.48;98774.06;7255678;19;153218;-59
2022/11/23 12:16:43;;;;;;;;;;;;;;;20.54;44.79;98782.34;7261860;19;156623;-59
2022/11/23 12:19:13;;;;;;;;;;;;;;;20.54;44.95;98796.38;7255430;19;154299;-58
2022/11/23 12:21:40;;;;;;;;;;;;;;;20.53;44.92;98800.38;7252069;19;154657;-59
2022/11/23 12:24:06;;;;;;;;;;;;;;;20.49;45.07;98802.25;7254395;19;154446;-59
2022/11/23 12:26:36;;;;;;;;;;;;;;;20.46;44.96;98797.38;7256163;19;154238;-59
2022/11/23 12:29:03;;;;;;;;;;;;;;;20.44;44.53;98791.31;7253897;19;153648;-59
2022/11/23 12:31:40;;;;;;;;;;;;;;;20.41;44.56;98795.66;7255293;19;153609;-58
2022/11/23 12:34:21;;;;;;;;;;;;;;;20.40;44.59;98812.81;7254256;19;155812;-58
2022/11/23 12:37:06;;;;;;;;;;;;;;;20.37;44.96;98811.56;7257986;19;153804;-59
2022/11/23 12:39:33;;;;;;;;;;;;;;;20.35;44.52;98815.91;7253070;19;153887;-59
2022/11/23 12:42:00;;;;;;;;;;;;;;;20.35;44.84;98827.13;7252262;19;153144;-59